createdAt,value
2023-05-10T00:00:47.547Z,1.30
2023-05-10T00:03:18.689Z,1.30
2023-05-10T00:08:19.334Z,1.10
2023-05-10T00:10:50.338Z,1.00
2023-05-10T00:15:51.792Z,1.00
2023-05-10T00:18:23.741Z,1.10
2023-05-10T00:20:54.826Z,1.10
2023-05-10T00:25:55.535Z,1.60
2023-05-10T00:28:26.559Z,1.10
2023-05-10T00:33:27.498Z,1.30
2023-05-10T00:35:58.417Z,1.20
2023-05-10T00:38:29.258Z,1.40
2023-05-10T00:43:29.875Z,1.20
2023-05-10T00:48:32.187Z,1.20
2023-05-10T00:51:04.653Z,1.20
2023-05-10T00:53:36.487Z,1.00
2023-05-10T00:56:07.650Z,1.20
2023-05-10T00:58:39.339Z,1.40
2023-05-10T01:01:11.851Z,1.20
2023-05-10T01:03:43.718Z,1.30
2023-05-10T01:06:14.779Z,1.40
2023-05-10T01:08:46.145Z,1.20
2023-05-10T01:11:17.058Z,1.40
2023-05-10T01:13:54.712Z,1.40
2023-05-10T01:16:26.438Z,1.40
2023-05-10T01:18:57.970Z,0.90
2023-05-10T01:21:35.564Z,1.30
2023-05-10T01:24:23.583Z,1.40
2023-05-10T01:27:26.996Z,1.60
2023-05-10T01:30:30.966Z,1.50
2023-05-10T01:33:08.370Z,1.10
2023-05-10T01:35:45.227Z,1.20
2023-05-10T01:38:23.196Z,1.30
2023-05-10T01:41:06.369Z,1.10
2023-05-10T01:43:45.162Z,1.20
2023-05-10T01:46:22.871Z,1.40
2023-05-10T01:48:58.083Z,1.30
2023-05-10T01:51:35.905Z,1.10
2023-05-10T01:54:08.029Z,1.30
2023-05-10T01:56:42.722Z,1.20
2023-05-10T01:59:19.178Z,1.30
2023-05-10T02:01:52.297Z,1.30
2023-05-10T02:04:26.859Z,1.50
2023-05-10T02:06:59.428Z,1.10
2023-05-10T02:09:32.884Z,1.00
2023-05-10T02:12:07.692Z,1.20
2023-05-10T02:14:40.938Z,1.20
2023-05-10T02:17:13.514Z,1.50
2023-05-10T02:19:46.346Z,1.10
2023-05-10T02:22:19.484Z,1.10
2023-05-10T02:24:52.025Z,1.30
2023-05-10T02:27:24.330Z,1.40
2023-05-10T02:29:56.734Z,1.10
2023-05-10T02:32:29.935Z,1.20
2023-05-10T02:35:03.089Z,1.40
2023-05-10T02:37:36.529Z,1.20
2023-05-10T02:40:10.988Z,1.10
2023-05-10T02:42:46.693Z,0.90
2023-05-10T02:45:21.003Z,1.10
2023-05-10T02:47:52.548Z,1.40
2023-05-10T02:50:24.631Z,1.00
2023-05-10T02:53:01.745Z,1.30
2023-05-10T02:55:39.024Z,1.20
2023-05-10T02:58:10.656Z,1.10
2023-05-10T03:00:41.756Z,1.30
2023-05-10T03:03:13.066Z,1.10
2023-05-10T03:05:44.212Z,1.20
2023-05-10T03:08:15.325Z,0.80
2023-05-10T03:10:57.762Z,1.20
2023-05-10T03:13:37.706Z,1.20
2023-05-10T03:16:14.550Z,1.30
2023-05-10T03:18:53.061Z,1.20
2023-05-10T03:21:28.153Z,1.30
2023-05-10T03:24:07.678Z,1.20
2023-05-10T03:26:39.687Z,1.30
2023-05-10T03:29:12.466Z,0.90
2023-05-10T03:31:43.993Z,1.00
2023-05-10T03:34:15.371Z,0.90
2023-05-10T03:39:16.097Z,1.00
2023-05-10T03:41:47.203Z,1.10
2023-05-10T03:44:18.414Z,1.40
2023-05-10T03:46:49.649Z,1.40
2023-05-10T03:49:21.061Z,1.40
2023-05-10T03:51:52.104Z,1.10
2023-05-10T03:54:23.445Z,1.30
2023-05-10T03:59:23.874Z,1.20
2023-05-10T04:04:24.405Z,1.60
2023-05-10T04:09:24.882Z,1.40
2023-05-10T04:11:56.214Z,1.40
2023-05-10T04:14:27.545Z,1.20
2023-05-10T04:16:59.084Z,1.10
2023-05-10T04:19:32.894Z,1.20
2023-05-10T04:22:04.449Z,1.20
2023-05-10T04:24:35.603Z,1.00
2023-05-10T04:29:35.962Z,1.20
2023-05-10T04:32:08.419Z,1.20
2023-05-10T04:34:39.774Z,1.10
2023-05-10T04:37:10.968Z,1.30
2023-05-10T04:42:15.898Z,1.40
2023-05-10T04:44:47.052Z,1.10
2023-05-10T04:47:18.085Z,1.80
2023-05-10T04:49:49.232Z,1.70
2023-05-10T04:52:20.372Z,1.40
2023-05-10T04:54:51.968Z,1.30
2023-05-10T04:57:23.038Z,1.30
2023-05-10T04:59:54.253Z,1.30
2023-05-10T05:02:25.914Z,1.30
2023-05-10T05:04:58.743Z,1.60
2023-05-10T05:07:31.573Z,1.60
2023-05-10T05:10:02.794Z,1.80
2023-05-10T05:12:34.750Z,1.30
2023-05-10T05:15:09.006Z,1.30
2023-05-10T05:17:43.638Z,1.50
2023-05-10T05:20:16.516Z,1.40
2023-05-10T05:22:47.761Z,1.30
2023-05-10T05:25:19.464Z,1.10
2023-05-10T05:27:50.521Z,1.30
2023-05-10T05:30:22.079Z,1.20
2023-05-10T05:32:53.547Z,1.50
2023-05-10T05:35:26.097Z,1.00
2023-05-10T05:37:57.258Z,1.60
2023-05-10T05:40:28.177Z,1.70
2023-05-10T05:42:59.357Z,1.30
2023-05-10T05:45:30.468Z,1.40
2023-05-10T05:48:01.978Z,1.20
2023-05-10T05:50:33.229Z,1.40
2023-05-10T05:53:04.685Z,1.30
2023-05-10T05:55:36.461Z,1.80
2023-05-10T05:58:07.394Z,1.70
2023-05-10T06:00:38.491Z,1.30
2023-05-10T06:03:09.752Z,1.50
2023-05-10T06:05:40.994Z,1.70
2023-05-10T06:08:12.131Z,1.50
2023-05-10T06:10:43.452Z,1.30
2023-05-10T06:13:14.556Z,1.50
2023-05-10T06:15:46.445Z,1.50
2023-05-10T06:18:17.606Z,1.60
2023-05-10T06:20:49.204Z,2.00
2023-05-10T06:23:20.404Z,1.70
2023-05-10T06:25:51.329Z,1.90
2023-05-10T06:28:22.695Z,1.60
2023-05-10T06:30:54.026Z,1.60
2023-05-10T06:33:25.036Z,1.70
2023-05-10T06:35:56.082Z,1.70
2023-05-10T06:38:27.145Z,1.60
2023-05-10T06:40:58.177Z,1.80
2023-05-10T06:43:29.977Z,1.90
2023-05-10T06:46:01.390Z,1.60
2023-05-10T06:48:32.289Z,2.00
2023-05-10T06:51:03.604Z,1.90
2023-05-10T06:53:34.955Z,1.50
2023-05-10T06:56:06.405Z,1.90
2023-05-10T06:58:37.777Z,2.10
2023-05-10T07:01:09.353Z,1.80
2023-05-10T07:03:40.505Z,1.90
2023-05-10T07:08:53.303Z,2.20
2023-05-10T07:11:25.074Z,1.80
2023-05-10T07:13:56.012Z,1.80
2023-05-10T07:16:27.661Z,1.50
2023-05-10T07:18:58.892Z,1.50
2023-05-10T07:21:30.269Z,1.90
2023-05-10T07:24:01.994Z,1.90
2023-05-10T07:26:33.142Z,1.70
2023-05-10T07:29:04.786Z,1.80
2023-05-10T07:31:36.215Z,1.40
2023-05-10T07:34:07.196Z,2.40
2023-05-10T07:36:38.662Z,1.50
2023-05-10T07:39:09.887Z,1.80
2023-05-10T07:41:41.296Z,1.50
2023-05-10T07:44:12.300Z,1.80
2023-05-10T07:46:43.843Z,1.70
2023-05-10T07:49:15.745Z,1.70
2023-05-10T07:51:46.836Z,1.60
2023-05-10T07:54:18.400Z,1.60
2023-05-10T07:56:49.422Z,2.00
2023-05-10T07:59:21.288Z,1.80
2023-05-10T08:01:52.458Z,2.20
2023-05-10T08:04:23.684Z,1.60
2023-05-10T08:06:54.827Z,2.00
2023-05-10T08:09:26.402Z,1.60
2023-05-10T08:12:00.495Z,1.40
2023-05-10T08:14:33.019Z,1.90
2023-05-10T08:17:04.710Z,2.10
2023-05-10T08:19:35.943Z,1.60
2023-05-10T08:22:07.578Z,1.70
2023-05-10T08:24:39.497Z,1.60
2023-05-10T08:27:10.630Z,1.80
2023-05-10T08:29:49.490Z,1.70
2023-05-10T08:32:21.013Z,1.60
2023-05-10T08:34:51.981Z,1.70
2023-05-10T08:37:23.052Z,1.90
2023-05-10T08:39:55.172Z,1.70
2023-05-10T08:42:28.327Z,1.80
2023-05-10T08:45:01.428Z,1.60
2023-05-10T08:47:33.031Z,1.60
2023-05-10T08:50:04.867Z,2.20
2023-05-10T08:52:40.807Z,2.10
2023-05-10T08:55:12.329Z,1.70
2023-05-10T08:57:43.390Z,1.90
2023-05-10T09:00:16.937Z,2.00
2023-05-10T09:02:48.450Z,1.40
2023-05-10T09:05:20.295Z,1.80
2023-05-10T09:07:51.494Z,1.60
2023-05-10T09:10:23.566Z,1.70
2023-05-10T09:12:56.928Z,1.60
2023-05-10T09:15:29.757Z,1.40
2023-05-10T09:18:03.412Z,1.50
2023-05-10T09:20:34.924Z,1.30
2023-05-10T09:23:06.126Z,1.80
2023-05-10T09:25:38.300Z,1.70
2023-05-10T09:28:12.103Z,1.40
2023-05-10T09:30:44.088Z,1.70
2023-05-10T09:33:15.276Z,1.50
2023-05-10T09:35:47.188Z,2.00
2023-05-10T09:38:18.095Z,1.90
2023-05-10T09:40:56.470Z,1.80
2023-05-10T09:43:28.300Z,1.70
2023-05-10T09:45:59.752Z,1.60
2023-05-10T09:48:30.673Z,1.30
2023-05-10T09:51:01.984Z,1.10
2023-05-10T09:53:33.940Z,2.00
2023-05-10T09:56:05.439Z,1.60
2023-05-10T09:58:40.147Z,1.60
2023-05-10T10:01:15.415Z,1.60
2023-05-10T10:03:47.468Z,1.40
2023-05-10T10:06:29.509Z,2.00
2023-05-10T10:09:01.553Z,1.80
2023-05-10T10:11:32.745Z,1.80
2023-05-10T10:14:04.042Z,1.40
2023-05-10T10:16:36.034Z,1.80
2023-05-10T10:19:08.379Z,1.80
2023-05-10T10:21:39.689Z,1.70
2023-05-10T10:24:11.247Z,1.80
2023-05-10T10:26:44.229Z,1.50
2023-05-10T10:29:34.946Z,1.70
2023-05-10T10:32:14.023Z,1.70
2023-05-10T10:34:45.168Z,1.90
2023-05-10T10:37:16.287Z,1.80
2023-05-10T10:39:50.012Z,1.60
2023-05-10T10:42:48.084Z,1.90
2023-05-10T10:45:19.670Z,2.10
2023-05-10T10:47:51.039Z,1.90
2023-05-10T10:50:22.212Z,2.00
2023-05-10T10:52:54.618Z,1.90
2023-05-10T10:55:27.598Z,1.80
2023-05-10T10:58:03.308Z,1.80
2023-05-10T11:00:35.672Z,1.80
2023-05-10T11:03:09.500Z,1.70
2023-05-10T11:05:42.842Z,1.70
2023-05-10T11:08:17.513Z,1.60
2023-05-10T11:11:04.429Z,1.80
2023-05-10T11:13:37.024Z,2.40
2023-05-10T11:16:20.091Z,1.90
2023-05-10T11:19:00.778Z,1.50
2023-05-10T11:21:32.496Z,1.50
2023-05-10T11:24:07.245Z,1.50
2023-05-10T11:26:39.319Z,1.70
2023-05-10T11:29:10.755Z,1.70
2023-05-10T11:31:47.835Z,1.60
2023-05-10T11:34:28.983Z,1.70
2023-05-10T11:37:00.514Z,1.90
2023-05-10T11:39:32.937Z,1.50
2023-05-10T11:42:04.404Z,2.10
2023-05-10T11:44:35.654Z,1.70
2023-05-10T11:47:07.561Z,2.90
2023-05-10T11:49:38.581Z,1.60
2023-05-10T11:52:12.023Z,1.40
2023-05-10T11:54:52.971Z,1.60
2023-05-10T11:57:29.570Z,1.40
2023-05-10T12:00:03.440Z,1.50
2023-05-10T12:02:34.871Z,1.40
2023-05-10T12:05:07.696Z,1.40
2023-05-10T12:07:38.958Z,1.40
2023-05-10T12:10:15.580Z,1.40
2023-05-10T12:15:23.165Z,1.30
2023-05-10T12:17:55.134Z,1.20
2023-05-10T12:20:29.670Z,1.10
2023-05-10T12:23:03.097Z,1.10
2023-05-10T12:25:36.413Z,1.20
2023-05-10T12:28:10.932Z,1.30
2023-05-10T12:30:42.173Z,1.70
2023-05-10T12:33:16.195Z,1.20
2023-05-10T12:35:51.377Z,1.40
2023-05-10T12:38:34.807Z,1.50
2023-05-10T12:41:07.938Z,1.20
2023-05-10T12:43:39.801Z,1.30
2023-05-10T12:46:12.695Z,1.30
2023-05-10T12:48:45.466Z,1.10
2023-05-10T12:51:20.424Z,1.40
2023-05-10T12:53:51.420Z,1.50
2023-05-10T12:56:22.317Z,1.20
2023-05-10T12:58:53.522Z,1.40
2023-05-10T13:01:24.521Z,1.10
2023-05-10T13:03:55.457Z,1.20
2023-05-10T13:06:26.757Z,1.30
2023-05-10T13:08:58.743Z,1.10
2023-05-10T13:11:29.982Z,1.30
2023-05-10T13:14:01.271Z,1.20
2023-05-10T13:16:32.286Z,0.90
2023-05-10T13:19:03.934Z,1.10
2023-05-10T13:21:34.951Z,1.20
2023-05-10T13:24:06.698Z,1.10
2023-05-10T13:26:37.710Z,1.10
2023-05-10T13:29:08.819Z,1.20
2023-05-10T13:31:40.170Z,1.20
2023-05-10T13:34:11.503Z,1.20
2023-05-10T13:36:42.407Z,1.00
2023-05-10T13:39:14.299Z,1.20
2023-05-10T13:41:45.436Z,1.20
2023-05-10T13:44:17.478Z,1.20
2023-05-10T13:46:48.849Z,1.20
2023-05-10T13:49:19.799Z,0.90
2023-05-10T13:51:50.864Z,1.30
2023-05-10T13:54:23.162Z,0.90
2023-05-10T13:56:54.346Z,1.20
2023-05-10T13:59:25.678Z,1.20
2023-05-10T14:01:56.936Z,1.20
2023-05-10T14:04:28.577Z,1.00
2023-05-10T14:06:59.695Z,1.30
2023-05-10T14:09:31.544Z,0.90
2023-05-10T14:12:03.331Z,1.30
2023-05-10T14:14:34.492Z,1.10
2023-05-10T14:17:05.404Z,1.30
2023-05-10T14:19:36.452Z,1.10
2023-05-10T14:22:07.724Z,1.00
2023-05-10T14:24:38.783Z,1.20
2023-05-10T14:27:10.135Z,1.40
2023-05-10T14:29:41.279Z,1.10
2023-05-10T14:32:12.205Z,1.10
2023-05-10T14:34:43.279Z,1.00
2023-05-10T14:37:18.788Z,1.20
2023-05-10T14:39:49.792Z,1.10
2023-05-10T14:42:20.758Z,1.40
2023-05-10T14:44:51.932Z,1.30
2023-05-10T14:47:22.967Z,1.10
2023-05-10T14:49:54.221Z,1.10
2023-05-10T14:52:25.292Z,1.20
2023-05-10T14:54:56.252Z,1.30
2023-05-10T14:57:27.264Z,1.50
2023-05-10T14:59:58.446Z,1.30
2023-05-10T15:02:30.468Z,1.10
2023-05-10T15:05:01.970Z,1.10
2023-05-10T15:07:34.041Z,1.20
2023-05-10T15:10:05.809Z,1.00
2023-05-10T15:12:36.689Z,1.10
2023-05-10T15:15:09.437Z,1.10
2023-05-10T15:17:40.618Z,1.00
2023-05-10T15:20:13.101Z,1.00
2023-05-10T15:22:44.478Z,1.00
2023-05-10T15:25:16.987Z,1.10
2023-05-10T15:27:48.187Z,1.40
2023-05-10T15:30:19.485Z,1.10
2023-05-10T15:32:50.470Z,1.00
2023-05-10T15:35:22.079Z,1.10
2023-05-10T15:37:53.116Z,0.90
2023-05-10T15:40:24.077Z,1.00
2023-05-10T15:42:55.100Z,0.90
2023-05-10T15:45:26.232Z,2.60
2023-05-10T15:47:57.329Z,1.70
2023-05-10T15:50:28.820Z,1.20
2023-05-10T15:52:59.769Z,1.30
2023-05-10T15:55:31.559Z,1.00
2023-05-10T15:58:02.800Z,1.00
2023-05-10T16:00:34.418Z,1.40
2023-05-10T16:03:05.803Z,1.10
2023-05-10T16:05:36.948Z,1.10
2023-05-10T16:08:07.957Z,1.10
2023-05-10T16:10:39.016Z,1.30
2023-05-10T16:13:10.069Z,1.30
2023-05-10T16:15:41.928Z,1.20
2023-05-10T16:18:13.519Z,1.10
2023-05-10T16:20:44.630Z,1.10
2023-05-10T16:23:16.197Z,1.00
2023-05-10T16:25:47.212Z,1.10
2023-05-10T16:28:19.631Z,1.00
2023-05-10T16:30:50.708Z,0.90
2023-05-10T16:33:21.878Z,1.30
2023-05-10T16:35:52.889Z,0.90
2023-05-10T16:38:24.134Z,0.80
2023-05-10T16:40:55.435Z,1.20
2023-05-10T16:43:26.464Z,1.10
2023-05-10T16:45:57.605Z,1.10
2023-05-10T16:48:28.594Z,1.10
2023-05-10T16:50:59.485Z,1.20
2023-05-10T16:53:31.252Z,1.20
2023-05-10T16:56:02.403Z,1.00
2023-05-10T16:58:34.011Z,1.00
2023-05-10T17:01:05.195Z,1.10
2023-05-10T17:03:36.918Z,1.20
2023-05-10T17:06:10.218Z,1.30
2023-05-10T17:08:41.427Z,1.00
2023-05-10T17:11:12.450Z,1.30
2023-05-10T17:13:44.001Z,0.90
2023-05-10T17:16:15.047Z,1.20
2023-05-10T17:18:46.708Z,1.20
2023-05-10T17:21:17.804Z,1.60
2023-05-10T17:23:49.073Z,1.00
2023-05-10T17:26:20.115Z,1.10
2023-05-10T17:28:51.362Z,1.20
2023-05-10T17:31:22.722Z,1.30
2023-05-10T17:33:53.663Z,1.20
2023-05-10T17:36:24.656Z,1.60
2023-05-10T17:38:55.736Z,1.30
2023-05-10T17:41:26.826Z,1.10
2023-05-10T17:43:58.078Z,1.10
2023-05-10T17:46:29.288Z,1.10
2023-05-10T17:49:00.677Z,1.20
2023-05-10T17:51:32.270Z,1.10
2023-05-10T17:54:03.341Z,1.10
2023-05-10T17:56:34.666Z,1.00
2023-05-10T17:59:06.602Z,1.90
2023-05-10T18:01:37.868Z,1.30
2023-05-10T18:04:09.399Z,1.10
2023-05-10T18:06:41.642Z,1.30
2023-05-10T18:09:12.805Z,1.40
2023-05-10T18:11:43.882Z,1.10
2023-05-10T18:14:17.122Z,1.10
2023-05-10T18:16:51.926Z,1.10
2023-05-10T18:19:25.062Z,1.10
2023-05-10T18:21:56.167Z,1.30
2023-05-10T18:24:38.407Z,1.10
2023-05-10T18:27:15.411Z,1.60
2023-05-10T18:29:46.523Z,1.20
2023-05-10T18:32:17.583Z,1.30
2023-05-10T18:34:48.879Z,1.40
2023-05-10T18:37:20.159Z,1.40
2023-05-10T18:39:51.708Z,1.20
2023-05-10T18:42:22.876Z,1.50
2023-05-10T18:44:53.721Z,1.40
2023-05-10T18:47:26.529Z,1.40
2023-05-10T18:49:57.952Z,1.50
2023-05-10T18:52:55.219Z,1.50
2023-05-10T18:55:34.770Z,1.50
2023-05-10T18:58:06.209Z,1.30
2023-05-10T19:00:37.292Z,1.30
2023-05-10T19:03:08.605Z,1.50
2023-05-10T19:05:39.717Z,1.50
2023-05-10T19:08:11.005Z,1.80
2023-05-10T19:10:42.354Z,1.50
2023-05-10T19:13:15.052Z,1.40
2023-05-10T19:15:46.564Z,1.70
2023-05-10T19:18:17.672Z,1.50
2023-05-10T19:20:48.632Z,1.50
2023-05-10T19:23:19.639Z,1.70
2023-05-10T19:25:50.722Z,1.60
2023-05-10T19:28:21.895Z,1.30
2023-05-10T19:30:53.086Z,1.40
2023-05-10T19:33:24.404Z,1.70
2023-05-10T19:35:55.560Z,1.70
2023-05-10T19:38:27.174Z,2.10
2023-05-10T19:40:59.528Z,1.50
2023-05-10T19:43:34.243Z,1.50
2023-05-10T19:46:05.873Z,1.60
2023-05-10T19:48:36.765Z,1.70
2023-05-10T19:51:10.275Z,2.20
2023-05-10T19:53:44.816Z,1.80
2023-05-10T19:56:18.218Z,1.90
2023-05-10T19:58:49.456Z,1.80
2023-05-10T20:01:20.479Z,1.60
2023-05-10T20:03:51.723Z,1.60
2023-05-10T20:06:23.192Z,1.60
2023-05-10T20:08:54.534Z,1.70
2023-05-10T20:11:25.606Z,1.70
2023-05-10T20:13:56.530Z,1.90
2023-05-10T20:16:28.047Z,1.80
2023-05-10T20:18:59.131Z,1.60
2023-05-10T20:21:30.163Z,1.90
2023-05-10T20:24:01.315Z,1.50
2023-05-10T20:26:34.190Z,1.30
2023-05-10T20:29:05.553Z,1.60
2023-05-10T20:31:36.685Z,1.40
2023-05-10T20:34:07.946Z,1.40
2023-05-10T20:36:39.074Z,1.40
2023-05-10T20:39:10.647Z,1.60
2023-05-10T20:41:42.127Z,1.50
2023-05-10T20:44:13.187Z,1.60
2023-05-10T20:46:45.090Z,1.70
2023-05-10T20:49:16.094Z,1.90
2023-05-10T20:51:47.489Z,2.00
2023-05-10T20:54:18.724Z,1.80
2023-05-10T20:56:49.899Z,1.90
2023-05-10T20:59:22.159Z,2.30
2023-05-10T21:01:53.630Z,2.30
2023-05-10T21:04:26.041Z,2.20
2023-05-10T21:06:57.210Z,2.00
2023-05-10T21:09:28.352Z,1.90
2023-05-10T21:12:01.631Z,2.40
2023-05-10T21:14:33.068Z,2.20
2023-05-10T21:17:04.557Z,1.80
2023-05-10T21:19:35.747Z,2.10
2023-05-10T21:22:07.705Z,2.20
2023-05-10T21:24:39.275Z,3.00
2023-05-10T21:27:10.528Z,1.80
2023-05-10T21:29:41.603Z,2.10
2023-05-10T21:32:12.540Z,3.00
2023-05-10T21:34:43.635Z,2.40
2023-05-10T21:37:14.899Z,2.40
2023-05-10T21:39:46.219Z,2.20
2023-05-10T21:42:17.541Z,2.30
2023-05-10T21:44:48.658Z,2.00
2023-05-10T21:47:19.604Z,1.90
2023-05-10T21:49:51.979Z,2.30
2023-05-10T21:52:22.989Z,2.10
2023-05-10T21:54:54.005Z,2.00
2023-05-10T21:57:25.244Z,1.70
2023-05-10T21:59:56.460Z,1.90
2023-05-10T22:02:29.502Z,3.00
2023-05-10T22:05:02.213Z,2.20
2023-05-10T22:07:35.223Z,1.90
2023-05-10T22:10:07.380Z,1.90
2023-05-10T22:12:38.375Z,1.90
2023-05-10T22:15:11.199Z,1.80
2023-05-10T22:17:42.571Z,1.80
2023-05-10T22:20:14.108Z,1.50
2023-05-10T22:22:45.094Z,2.00
2023-05-10T22:25:16.713Z,1.60
2023-05-10T22:27:48.168Z,2.00
2023-05-10T22:30:20.492Z,2.10
2023-05-10T22:32:51.803Z,1.90
2023-05-10T22:35:23.120Z,2.20
2023-05-10T22:37:54.646Z,2.10
2023-05-10T22:40:25.714Z,1.80
2023-05-10T22:42:56.713Z,1.80
2023-05-10T22:45:28.359Z,1.60
2023-05-10T22:48:00.781Z,2.00
2023-05-10T22:50:33.233Z,1.60
2023-05-10T22:53:04.480Z,1.90
2023-05-10T22:55:36.612Z,1.70
2023-05-10T22:58:08.044Z,1.90
2023-05-10T23:00:39.807Z,1.80
2023-05-10T23:03:10.828Z,1.50
2023-05-10T23:05:41.862Z,1.80
2023-05-10T23:08:12.940Z,2.10
2023-05-10T23:10:44.054Z,1.80
2023-05-10T23:13:15.408Z,1.80
2023-05-10T23:15:46.658Z,1.50
2023-05-10T23:18:17.760Z,1.60
2023-05-10T23:20:48.973Z,2.00
2023-05-10T23:23:19.875Z,1.80
2023-05-10T23:25:51.645Z,2.10
2023-05-10T23:28:22.578Z,2.10
2023-05-10T23:30:58.551Z,1.90
2023-05-10T23:33:29.674Z,1.70
2023-05-10T23:36:00.600Z,1.90
2023-05-10T23:38:32.600Z,2.00
2023-05-10T23:41:03.544Z,2.40
2023-05-10T23:43:34.589Z,2.20
2023-05-10T23:46:06.679Z,2.20
2023-05-10T23:48:37.843Z,2.30
2023-05-10T23:51:09.264Z,2.00
2023-05-10T23:53:40.351Z,2.10
2023-05-10T23:56:12.145Z,2.00
2023-05-10T23:58:44.313Z,2.10
